createdAt,value
2023-03-18T00:00:45.915Z,15.30
2023-03-18T00:15:51.971Z,15.30
2023-03-18T00:30:56.795Z,15.30
2023-03-18T00:46:00.500Z,15.30
2023-03-18T01:01:07.660Z,15.30
2023-03-18T01:16:11.859Z,15.30
2023-03-18T01:31:15.248Z,14.90
2023-03-18T01:46:31.525Z,14.90
2023-03-18T02:01:51.671Z,14.40
2023-03-18T02:17:04.791Z,14.30
2023-03-18T02:32:10.879Z,14.40
2023-03-18T02:47:19.937Z,14.50
2023-03-18T03:02:22.617Z,14.50
2023-03-18T03:17:25.666Z,14.40
2023-03-18T03:32:29.288Z,16.20
2023-03-18T03:47:32.664Z,13.80
2023-03-18T04:02:36.114Z,13.50
2023-03-18T04:17:39.172Z,13.20
2023-03-18T04:32:41.830Z,13.20
2023-03-18T04:47:45.432Z,13.20
2023-03-18T05:02:49.612Z,13.50
2023-03-18T05:17:52.837Z,13.50
2023-03-18T05:32:55.519Z,13.30
2023-03-18T05:48:12.638Z,13.20
2023-03-18T06:03:27.168Z,12.70
2023-03-18T06:18:30.832Z,12.70
2023-03-18T06:33:34.190Z,13.00
2023-03-18T06:48:43.863Z,13.00
2023-03-18T07:03:54.641Z,12.80
2023-03-18T07:18:59.015Z,12.60
2023-03-18T07:34:01.648Z,12.70
2023-03-18T07:49:04.068Z,12.90
2023-03-18T08:04:06.687Z,13.60
2023-03-18T08:19:09.266Z,13.20
2023-03-18T08:34:11.684Z,13.20
2023-03-18T08:49:14.263Z,13.50
2023-03-18T09:04:16.929Z,13.80
2023-03-18T09:19:19.397Z,14.00
2023-03-18T09:34:22.107Z,14.30
2023-03-18T09:49:30.548Z,14.90
2023-03-18T10:04:48.366Z,15.20
2023-03-18T10:19:57.351Z,15.70
2023-03-18T10:35:14.625Z,16.20
2023-03-18T10:50:19.219Z,16.50
2023-03-18T11:05:35.422Z,16.70
2023-03-18T11:20:44.717Z,17.20
2023-03-18T11:36:06.068Z,17.10
2023-03-18T11:51:28.572Z,17.80
2023-03-18T12:06:35.959Z,17.40
2023-03-18T12:21:48.743Z,17.00
2023-03-18T12:37:24.802Z,16.90
2023-03-18T12:52:35.940Z,16.50
2023-03-18T13:07:47.590Z,16.40
2023-03-18T13:23:09.785Z,16.70
2023-03-18T13:38:30.541Z,16.90
2023-03-18T13:53:39.260Z,17.00
2023-03-18T14:08:44.339Z,16.90
2023-03-18T14:24:21.732Z,17.10
2023-03-18T14:39:29.990Z,17.50
2023-03-18T14:54:42.370Z,17.40
2023-03-18T15:09:48.843Z,17.30
2023-03-18T15:24:52.724Z,17.80
2023-03-18T15:39:57.114Z,17.80
2023-03-18T15:55:01.180Z,17.90
2023-03-18T16:10:04.195Z,17.40
2023-03-18T16:25:07.648Z,17.30
2023-03-18T16:40:22.077Z,17.20
2023-03-18T16:55:25.488Z,17.00
2023-03-18T17:10:28.128Z,16.90
2023-03-18T17:25:31.689Z,16.90
2023-03-18T17:40:34.422Z,17.20
2023-03-18T17:55:37.766Z,16.90
2023-03-18T18:10:40.732Z,16.30
2023-03-18T18:25:43.152Z,16.30
2023-03-18T18:40:46.436Z,16.70
2023-03-18T18:55:49.441Z,16.80
2023-03-18T19:11:00.364Z,16.30
2023-03-18T19:26:05.746Z,16.00
2023-03-18T19:41:08.375Z,15.90
2023-03-18T19:56:25.992Z,15.90
2023-03-18T20:11:28.671Z,15.70
2023-03-18T20:26:32.791Z,15.60
2023-03-18T20:41:37.377Z,15.60
2023-03-18T20:56:39.837Z,15.50
2023-03-18T21:11:42.975Z,15.40
2023-03-18T21:26:57.805Z,15.50
2023-03-18T21:42:06.217Z,15.70
2023-03-18T21:57:15.359Z,15.70
2023-03-18T22:12:30.089Z,14.20
2023-03-18T22:27:33.017Z,14.50
2023-03-18T22:42:35.964Z,14.40
2023-03-18T22:57:38.655Z,14.50
2023-03-18T23:12:42.052Z,14.20
2023-03-18T23:27:45.329Z,13.00
2023-03-18T23:42:48.140Z,13.40
2023-03-18T23:57:50.896Z,13.70
